createdAt,value
2024-01-10T00:02:32.422Z,60.95
2024-01-10T00:12:53.522Z,60.75
2024-01-10T00:23:15.045Z,61.00
2024-01-10T00:33:36.852Z,61.17
2024-01-10T00:43:58.182Z,60.90
2024-01-10T00:54:19.536Z,60.89
2024-01-10T01:04:41.200Z,60.25
2024-01-10T01:15:03.671Z,60.09
2024-01-10T01:25:24.610Z,60.03
2024-01-10T01:35:46.306Z,60.04
2024-01-10T01:46:07.586Z,60.14
2024-01-10T01:56:29.066Z,60.58
2024-01-10T02:06:50.489Z,60.43
2024-01-10T02:17:13.500Z,60.13
2024-01-10T02:27:40.422Z,60.30
2024-01-10T02:38:03.077Z,60.52
2024-01-10T02:48:24.646Z,60.43
2024-01-10T02:58:46.213Z,60.05
2024-01-10T03:09:08.752Z,60.30
2024-01-10T03:19:30.099Z,60.23
2024-01-10T03:29:51.354Z,60.59
2024-01-10T03:40:13.076Z,60.11
2024-01-10T03:50:34.660Z,60.10
2024-01-10T04:00:56.290Z,60.25
2024-01-10T04:11:17.433Z,60.06
2024-01-10T04:21:38.514Z,60.42
2024-01-10T04:32:00.237Z,60.11
2024-01-10T04:42:21.957Z,60.34
2024-01-10T04:52:43.108Z,60.40
2024-01-10T05:03:04.450Z,60.48
2024-01-10T05:13:26.300Z,60.29
2024-01-10T05:23:47.774Z,60.18
2024-01-10T05:34:09.290Z,60.26
2024-01-10T05:44:34.141Z,60.49
2024-01-10T05:54:55.249Z,60.28
2024-01-10T06:05:16.752Z,60.18
2024-01-10T06:15:38.222Z,60.23
2024-01-10T06:25:59.730Z,60.33
2024-01-10T06:36:21.114Z,60.29
2024-01-10T06:46:42.245Z,60.51
2024-01-10T06:57:03.876Z,60.61
2024-01-10T07:07:25.434Z,60.56
2024-01-10T07:17:46.713Z,60.25
2024-01-10T07:28:08.126Z,59.99
2024-01-10T07:38:30.187Z,60.37
2024-01-10T07:48:51.585Z,60.31
2024-01-10T07:59:16.255Z,60.29
2024-01-10T08:09:37.984Z,60.39
2024-01-10T08:19:59.275Z,60.11
2024-01-10T08:30:20.569Z,60.04
2024-01-10T08:40:42.018Z,60.50
2024-01-10T08:51:03.909Z,60.62
2024-01-10T09:01:25.133Z,60.20
2024-01-10T09:11:46.719Z,60.51
2024-01-10T09:22:08.545Z,61.36
2024-01-10T09:32:30.767Z,61.50
2024-01-10T09:42:55.966Z,61.67
2024-01-10T09:53:28.308Z,61.61
2024-01-10T10:03:50.782Z,61.51
2024-01-10T10:14:17.502Z,61.47
2024-01-10T10:24:40.679Z,62.01
2024-01-10T10:35:02.896Z,62.04
2024-01-10T10:45:27.089Z,62.77
2024-01-10T10:55:49.029Z,63.04
2024-01-10T11:06:10.916Z,63.15
2024-01-10T11:16:37.918Z,63.19
2024-01-10T11:27:11.014Z,63.77
2024-01-10T11:37:45.683Z,64.16
2024-01-10T11:48:09.138Z,64.61
2024-01-10T11:58:31.238Z,64.93
2024-01-10T12:08:52.632Z,65.40
2024-01-10T12:19:14.129Z,64.94
2024-01-10T12:29:35.642Z,65.25
2024-01-10T12:39:57.590Z,65.66
2024-01-10T12:50:18.956Z,65.41
2024-01-10T13:00:41.472Z,66.00
2024-01-10T13:11:05.654Z,65.95
2024-01-10T13:21:26.989Z,65.92
2024-01-10T13:31:51.751Z,66.43
2024-01-10T13:42:13.219Z,66.12
2024-01-10T13:52:34.700Z,66.39
2024-01-10T14:03:00.325Z,66.19
2024-01-10T14:13:22.184Z,66.43
2024-01-10T14:23:43.578Z,66.23
2024-01-10T14:34:08.511Z,66.17
2024-01-10T14:44:32.560Z,66.79
2024-01-10T14:54:57.070Z,66.53
2024-01-10T15:05:19.434Z,66.63
2024-01-10T15:15:41.744Z,66.36
2024-01-10T15:26:03.031Z,66.63
2024-01-10T15:36:24.724Z,66.36
2024-01-10T15:46:46.678Z,66.59
2024-01-10T15:57:08.145Z,66.70
2024-01-10T16:07:29.400Z,66.25
2024-01-10T16:17:50.598Z,66.05
2024-01-10T16:28:12.020Z,66.25
2024-01-10T16:38:33.429Z,66.34
2024-01-10T16:48:54.843Z,65.89
2024-01-10T16:59:16.830Z,65.75
2024-01-10T17:09:41.245Z,65.89
2024-01-10T17:20:04.550Z,65.53
2024-01-10T17:30:28.261Z,65.58
2024-01-10T17:40:53.046Z,65.64
2024-01-10T17:51:18.685Z,65.92
2024-01-10T18:12:03.350Z,65.53
2024-01-10T18:22:24.698Z,65.20
2024-01-10T18:32:46.179Z,65.29
2024-01-10T18:43:07.826Z,65.58
2024-01-10T18:53:29.661Z,65.34
2024-01-10T19:03:51.029Z,65.23
2024-01-10T19:14:12.274Z,65.28
2024-01-10T19:24:33.935Z,65.33
2024-01-10T19:34:55.218Z,65.26
2024-01-10T19:45:16.749Z,65.06
2024-01-10T19:55:38.200Z,64.79
2024-01-10T20:06:00.042Z,64.83
2024-01-10T20:16:21.514Z,65.02
2024-01-10T20:26:42.837Z,64.88
2024-01-10T20:37:04.941Z,64.83
2024-01-10T20:47:30.017Z,64.56
2024-01-10T20:57:54.637Z,64.45
2024-01-10T21:08:16.164Z,64.67
2024-01-10T21:18:39.024Z,64.57
2024-01-10T21:29:00.763Z,64.46
2024-01-10T21:39:23.354Z,64.82
2024-01-10T21:49:45.229Z,64.63
2024-01-10T22:00:07.811Z,63.85
2024-01-10T22:10:29.245Z,63.88
2024-01-10T22:20:50.215Z,63.85
2024-01-10T22:31:11.426Z,63.82
2024-01-10T22:41:32.779Z,64.00
2024-01-10T22:51:54.187Z,64.01
2024-01-10T23:02:15.698Z,63.94
2024-01-10T23:12:36.963Z,64.34
2024-01-10T23:22:58.458Z,64.47
2024-01-10T23:33:19.846Z,64.17
2024-01-10T23:43:41.166Z,64.19
2024-01-10T23:54:02.389Z,64.21
